Time;durP1;ratioP1;P1;durP2;ratioP2;P2;SDS_P1;SDS_P2;PMS_P1;PMS_P2;Temp;Humidity;BMP_temperature;BMP_pressure;BME280_temperature;BME280_humidity;BME280_pressure;Samples;Min_cycle;Max_cycle;Signal;HPM_P1;HPM_P2
2022/03/21 00:02:18;;;;;;;21.55;7.10;;;9.80;99.90;;;9.95;67.30;102318.50;5194728;28;20060;-67
2022/03/21 00:04:51;;;;;;;13.75;6.57;;;9.80;99.90;;;9.96;66.82;102308.97;5189038;28;20144;-68
2022/03/21 00:07:23;;;;;;;18.10;6.32;;;9.80;99.90;;;9.98;67.00;102303.06;5204221;28;20046;-68
2022/03/21 00:09:56;;;;;;;16.17;6.25;;;9.80;99.90;;;9.98;66.85;102294.38;5206617;28;20470;-68
2022/03/21 00:12:28;;;;;;;14.55;6.40;;;9.90;99.90;;;9.97;67.47;102302.97;5206951;28;20053;-68
2022/03/21 00:15:00;;;;;;;18.30;6.35;;;9.80;99.90;;;9.95;68.02;102315.91;5206491;28;20046;-68
2022/03/21 00:17:35;;;;;;;19.10;6.60;;;9.80;99.90;;;9.95;68.35;102315.00;5206070;28;20049;-68
2022/03/21 00:20:11;;;;;;;16.20;6.47;;;9.80;99.90;;;9.92;68.74;102320.94;5207129;28;20061;-68
2022/03/21 00:22:43;;;;;;;15.23;7.30;;;9.80;99.90;;;9.90;69.02;102322.53;5206704;28;20045;-68
2022/03/21 00:25:15;;;;;;;18.38;6.85;;;9.80;99.90;;;9.87;69.47;102314.53;5185897;28;20049;-68
2022/03/21 00:27:48;;;;;;;16.80;7.03;;;9.80;99.90;;;9.84;69.43;102311.72;5185633;28;20046;-67
2022/03/21 00:30:20;;;;;;;17.88;7.32;;;9.70;99.90;;;9.84;69.42;102316.94;5186227;28;20497;-67
2022/03/21 00:32:54;;;;;;;27.90;8.63;;;9.70;99.90;;;9.83;69.39;102312.53;5185956;28;20054;-67
2022/03/21 00:35:27;;;;;;;17.60;6.82;;;9.70;99.90;;;9.86;69.33;102315.34;5187346;28;20041;-67
2022/03/21 00:38:00;;;;;;;18.63;7.38;;;9.70;99.90;;;9.84;68.91;102314.31;5185700;28;20054;-67
2022/03/21 00:40:32;;;;;;;19.17;7.40;;;9.70;99.90;;;9.81;68.88;102306.34;5186101;28;20049;-68
2022/03/21 00:43:07;;;;;;;20.52;8.07;;;9.70;99.90;;;9.78;68.52;102295.75;5186109;28;20160;-68
2022/03/21 00:45:39;;;;;;;16.52;7.22;;;9.70;99.90;;;9.77;68.26;102305.22;5185566;28;20057;-68
2022/03/21 00:48:12;;;;;;;16.83;6.78;;;9.70;99.90;;;9.81;68.02;102302.84;5185469;28;20042;-68
2022/03/21 00:50:44;;;;;;;16.80;6.53;;;9.70;99.90;;;9.83;67.75;102302.13;5185479;28;20060;-68
2022/03/21 00:53:17;;;;;;;15.75;7.30;;;9.70;99.90;;;9.85;68.09;102312.66;5185583;28;20085;-68
2022/03/21 00:55:51;;;;;;;16.30;6.15;;;9.70;99.90;;;9.86;68.45;102314.44;5202110;28;20060;-68
2022/03/21 00:58:23;;;;;;;15.15;6.50;;;9.70;99.90;;;9.87;68.39;102316.25;5196484;28;20049;-68
2022/03/21 01:00:56;;;;;;;16.23;7.40;;;9.70;99.90;;;9.86;68.04;102315.34;5192475;28;20053;-68
2022/03/21 01:03:30;;;;;;;18.25;7.28;;;9.70;99.90;;;9.86;68.24;102315.34;5205760;28;20464;-67
2022/03/21 01:06:02;;;;;;;19.67;7.97;;;9.70;99.90;;;9.85;68.13;102321.38;5206184;28;20382;-68
2022/03/21 01:08:34;;;;;;;20.50;8.27;;;9.80;99.90;;;9.86;67.92;102317.94;5203419;28;20240;-68
2022/03/21 01:11:06;;;;;;;19.30;7.38;;;9.80;99.90;;;9.88;68.00;102323.25;5205776;28;20049;-68
2022/03/21 01:13:41;;;;;;;16.27;8.05;;;9.80;99.90;;;9.84;68.34;102322.13;5206235;28;20518;-68
2022/03/21 01:16:13;;;;;;;21.23;8.20;;;9.70;99.90;;;9.81;68.91;102324.56;5206003;28;20045;-67
2022/03/21 01:18:47;;;;;;;18.38;8.45;;;9.70;99.90;;;9.77;69.21;102320.84;5204385;28;20049;-68
2022/03/21 01:21:19;;;;;;;16.98;7.85;;;9.70;99.90;;;9.76;69.90;102320.78;5205745;28;20049;-67
2022/03/21 01:23:51;;;;;;;16.23;7.53;;;9.60;99.90;;;9.73;70.28;102313.69;5205357;28;20409;-70
2022/03/21 01:26:23;;;;;;;18.55;7.45;;;9.60;99.90;;;9.69;70.43;102321.19;5206002;28;20056;-67
2022/03/21 01:28:57;;;;;;;19.45;7.30;;;9.60;99.90;;;9.65;70.86;102324.41;5194759;28;20052;-67
2022/03/21 01:31:29;;;;;;;17.30;7.47;;;9.60;99.90;;;9.61;71.15;102317.22;5185212;28;20212;-69
2022/03/21 01:34:02;;;;;;;16.75;7.63;;;9.50;99.90;;;9.57;71.38;102317.81;5185401;28;20137;-69
2022/03/21 01:36:34;;;;;;;22.00;8.20;;;9.50;99.90;;;9.50;71.87;102309.63;5184909;28;20049;-68
2022/03/21 01:39:07;;;;;;;16.20;7.00;;;9.40;99.90;;;9.47;71.73;102322.47;5184469;28;20049;-68
2022/03/21 01:41:39;;;;;;;18.60;7.93;;;9.40;99.90;;;9.44;72.01;102319.66;5184863;28;20059;-68
2022/03/21 01:44:11;;;;;;;19.38;7.65;;;9.30;99.90;;;9.44;72.11;102317.03;5194412;28;20046;-67
2022/03/21 01:46:44;;;;;;;17.73;7.78;;;9.30;99.90;;;9.43;72.22;102320.44;5185085;28;20544;-68
2022/03/21 01:49:18;;;;;;;20.73;7.90;;;9.30;99.90;;;9.40;72.14;102322.88;5184460;28;20104;-68
2022/03/21 01:51:50;;;;;;;21.67;8.10;;;9.30;99.90;;;9.36;72.16;102325.19;5184844;28;20058;-68
2022/03/21 01:57:12;;;;;;;20.10;8.07;;;9.20;99.90;;;9.30;72.44;102316.97;5184836;28;20140;-68
2022/03/21 01:59:44;;;;;;;15.88;7.10;;;9.20;99.90;;;9.28;72.79;102329.91;5184667;28;20049;-68
2022/03/21 02:02:16;;;;;;;21.27;7.65;;;9.20;99.90;;;9.28;72.92;102329.91;5184834;28;20054;-68
2022/03/21 02:04:50;;;;;;;17.50;7.47;;;9.20;99.90;;;9.26;72.74;102334.13;5184652;28;20445;-68
2022/03/21 02:07:23;;;;;;;16.52;7.55;;;9.20;99.90;;;9.22;73.04;102330.41;5184297;28;20046;-68
2022/03/21 02:09:55;;;;;;;19.70;8.05;;;9.10;99.90;;;9.18;73.20;102324.88;5184031;28;20046;-68
2022/03/21 02:12:28;;;;;;;17.75;7.65;;;9.10;99.90;;;9.16;73.46;102331.69;5184801;28;20454;-68
2022/03/21 02:15:01;;;;;;;20.73;7.50;;;9.10;99.90;;;9.09;73.91;102324.31;5184659;28;20406;-68
2022/03/21 02:17:36;;;;;;;20.00;7.60;;;9.00;99.90;;;9.03;73.98;102317.00;5184268;28;20479;-68
2022/03/21 02:20:11;;;;;;;16.95;8.18;;;9.00;99.90;;;9.02;73.72;102316.91;5183999;28;20064;-68
2022/03/21 02:22:55;;;;;;;17.77;8.27;;;9.00;99.90;;;9.01;73.87;102316.00;5184519;28;20052;-68
2022/03/21 02:25:31;;;;;;;17.48;7.82;;;9.00;99.90;;;9.01;74.40;102326.41;5184304;28;20085;-68
2022/03/21 02:28:08;;;;;;;16.75;7.45;;;9.00;99.90;;;9.00;74.46;102316.81;5184060;28;20046;-68
2022/03/21 02:30:43;;;;;;;17.45;7.63;;;8.90;99.90;;;8.98;74.61;102315.78;5183579;28;20052;-67
2022/03/21 02:33:17;;;;;;;14.15;6.97;;;8.90;99.90;;;8.97;75.08;102320.09;5184455;28;20455;-68
2022/03/21 02:35:51;;;;;;;18.50;7.47;;;8.90;99.90;;;8.97;74.92;102320.09;5184221;28;20076;-68
2022/03/21 02:38:25;;;;;;;17.45;7.88;;;8.90;99.90;;;8.97;75.33;102320.09;5184011;28;20062;-68
2022/03/21 02:40:59;;;;;;;16.45;7.13;;;8.90;99.90;;;8.97;75.06;102320.09;5184141;28;20050;-68
2022/03/21 02:43:31;;;;;;;20.60;7.63;;;8.90;99.90;;;8.98;75.07;102319.28;5184382;28;20053;-68
2022/03/21 02:46:06;;;;;;;16.67;7.32;;;8.90;99.90;;;9.00;74.70;102326.28;5183990;28;20061;-67
2022/03/21 02:48:38;;;;;;;19.30;8.23;;;8.90;99.90;;;9.01;75.14;102315.09;5184088;28;20057;-68
2022/03/21 02:51:12;;;;;;;16.52;7.55;;;8.90;99.90;;;9.01;74.99;102321.22;5183803;28;20050;-68
2022/03/21 02:53:46;;;;;;;17.38;7.15;;;8.90;99.90;;;9.00;75.50;102323.69;5183922;28;20052;-68
2022/03/21 02:56:21;;;;;;;22.33;7.90;;;8.90;99.90;;;8.99;75.42;102322.78;5184146;28;20045;-68
2022/03/21 02:58:53;;;;;;;18.00;7.72;;;8.90;99.90;;;8.98;74.80;102316.69;5183658;28;20046;-68
2022/03/21 03:01:25;;;;;;;18.27;8.00;;;8.90;99.90;;;8.95;74.73;102303.50;5183699;28;20050;-68
2022/03/21 03:03:57;;;;;;;15.93;7.13;;;8.90;99.90;;;8.97;74.49;102311.41;5184398;28;20054;-69
2022/03/21 03:06:29;;;;;;;20.60;8.18;;;8.90;99.90;;;8.96;74.50;102313.09;5183765;28;20050;-68
2022/03/21 03:09:02;;;;;;;17.38;7.88;;;8.90;99.90;;;8.96;74.31;102309.59;5183355;28;20046;-68
2022/03/21 03:11:37;;;;;;;18.70;7.30;;;8.90;99.90;;;8.96;73.97;102320.00;5183845;28;20057;-68
2022/03/21 03:14:09;;;;;;;17.85;7.95;;;8.90;99.90;;;8.96;73.88;102312.19;5183673;28;20054;-68
2022/03/21 03:16:42;;;;;;;17.80;7.53;;;8.90;99.90;;;8.93;74.21;102311.97;5183953;28;20052;-68
2022/03/21 03:19:14;;;;;;;20.80;7.97;;;8.90;99.90;;;8.93;74.25;102318.13;5188064;28;20045;-68
2022/03/21 03:21:49;;;;;;;22.33;8.55;;;8.90;99.90;;;8.93;74.30;102323.31;5204169;28;20045;-68
2022/03/21 03:24:26;;;;;;;17.88;8.20;;;8.80;99.90;;;8.92;74.35;102311.09;5203999;28;20049;-68
2022/03/21 03:26:59;;;;;;;16.98;7.95;;;8.90;99.90;;;8.93;74.31;102319.78;5203945;28;20053;-68
2022/03/21 03:29:31;;;;;;;15.55;7.38;;;8.80;99.90;;;8.93;73.91;102318.13;5203738;28;20045;-68
2022/03/21 03:32:05;;;;;;;17.73;8.88;;;8.80;99.90;;;8.92;73.97;102318.88;5204041;28;20060;-68
2022/03/21 03:34:37;;;;;;;18.27;8.70;;;8.80;99.90;;;8.93;74.24;102317.19;5204196;28;20053;-68
2022/03/21 03:37:09;;;;;;;18.60;8.68;;;8.90;99.90;;;8.91;74.24;102314.50;5203915;28;20056;-68
2022/03/21 03:39:41;;;;;;;20.70;8.13;;;8.90;99.90;;;8.87;74.51;102314.22;5204149;28;20504;-68
2022/03/21 03:42:14;;;;;;;17.88;7.93;;;8.80;99.90;;;8.84;74.48;102316.59;5205726;28;20049;-68
2022/03/21 03:44:46;;;;;;;21.55;7.75;;;8.80;99.90;;;8.78;74.72;102322.28;5207914;28;20081;-68
2022/03/21 03:47:19;;;;;;;17.50;8.32;;;8.70;99.90;;;8.73;75.08;102323.66;5207490;28;20140;-68
2022/03/21 03:49:51;;;;;;;19.60;8.38;;;8.70;99.90;;;8.67;75.63;102336.25;5207160;28;20053;-68
2022/03/21 03:52:22;;;;;;;16.77;8.23;;;8.60;99.90;;;8.58;76.15;102333.97;5207486;28;20056;-68
2022/03/21 03:54:55;;;;;;;19.60;7.93;;;8.60;99.90;;;8.50;75.91;102340.34;5207691;28;20052;-68
2022/03/21 03:57:28;;;;;;;22.08;7.97;;;8.50;99.90;;;8.41;76.58;102340.63;5207384;28;20474;-67
2022/03/21 04:00:00;;;;;;;20.83;9.43;;;8.40;99.90;;;8.36;76.79;102330.72;5206941;28;20053;-68
2022/03/21 04:03:44;;;;;;;19.80;8.70;;;8.40;99.90;;;8.33;76.86;102331.34;5207691;28;20055;-68
2022/03/21 04:05:24;;;;;;;21.83;9.35;;;8.30;99.90;;;8.26;77.37;102339.53;5206994;28;20072;-68
2022/03/21 04:07:57;;;;;;;20.05;9.02;;;8.20;99.90;;;8.23;77.43;102339.34;5206746;28;20045;-68
2022/03/21 04:10:29;;;;;;;17.65;7.72;;;8.20;99.90;;;8.21;77.03;102338.31;5206979;28;20052;-68
2022/03/21 04:13:03;;;;;;;21.05;8.90;;;8.20;99.90;;;8.16;77.44;102347.50;5207436;28;20049;-68
2022/03/21 04:15:35;;;;;;;17.42;8.55;;;8.20;99.90;;;8.08;77.91;102349.53;5207120;28;20049;-68
2022/03/21 04:18:07;;;;;;;18.35;8.25;;;8.10;99.90;;;8.01;77.97;102349.03;5206685;28;20517;-68
2022/03/21 04:20:40;;;;;;;20.05;8.07;;;8.00;99.90;;;7.93;77.84;102347.59;5207051;28;20052;-68
2022/03/21 04:23:12;;;;;;;21.83;8.23;;;7.90;99.90;;;7.85;78.36;102339.28;5207076;28;20049;-67
2022/03/21 04:25:44;;;;;;;20.25;8.73;;;7.90;99.90;;;7.78;79.08;102347.44;5206954;28;20410;-68
2022/03/21 04:28:19;;;;;;;19.17;8.77;;;7.80;99.90;;;7.75;78.89;102350.69;5207007;28;20041;-68
2022/03/21 04:30:51;;;;;;;23.70;9.23;;;7.70;99.90;;;7.74;79.22;102356.69;5207088;28;20049;-69
2022/03/21 04:33:23;;;;;;;20.98;9.18;;;7.70;99.90;;;7.71;79.26;102353.88;5206845;28;20564;-67
2022/03/21 04:35:55;;;;;;;23.65;9.18;;;7.70;99.90;;;7.67;78.82;102353.53;5207015;28;20049;-67
2022/03/21 04:38:27;;;;;;;22.88;9.02;;;7.70;99.90;;;7.60;79.66;102357.41;5206770;28;20053;-68
2022/03/21 04:40:59;;;;;;;20.60;9.13;;;7.60;99.90;;;7.55;79.11;102361.34;5206565;28;20045;-67
2022/03/21 04:43:33;;;;;;;26.45;10.43;;;7.60;99.90;;;7.47;79.87;102365.09;5206787;28;20056;-67
2022/03/21 04:46:06;;;;;;;23.50;9.77;;;7.50;99.90;;;7.38;79.88;102360.16;5206241;28;20081;-67
2022/03/21 04:48:38;;;;;;;22.50;9.00;;;7.40;99.90;;;7.30;80.08;102367.38;5206235;28;20049;-67
2022/03/21 04:51:10;;;;;;;22.33;9.98;;;7.30;99.90;;;7.23;80.39;102370.28;5206196;28;20084;-66
2022/03/21 04:53:42;;;;;;;19.92;9.00;;;7.30;99.90;;;7.19;80.32;102378.66;5206320;28;20084;-67
2022/03/21 04:56:14;;;;;;;20.02;8.23;;;7.20;99.90;;;7.13;80.60;102370.44;5206225;28;20406;-67
2022/03/21 04:58:47;;;;;;;19.33;9.40;;;7.20;99.90;;;7.07;81.03;102372.56;5205919;28;20050;-67
2022/03/21 05:01:20;;;;;;;22.15;8.93;;;7.10;99.90;;;6.99;80.92;102378.88;5206237;28;20053;-67
2022/03/21 05:03:52;;;;;;;22.77;9.23;;;7.00;99.90;;;6.93;80.99;102378.44;5206167;28;20060;-68
2022/03/21 05:06:25;;;;;;;24.63;9.57;;;7.00;99.90;;;6.88;81.72;102377.19;5206371;28;20045;-67
2022/03/21 05:08:59;;;;;;;22.40;9.73;;;6.90;99.90;;;6.85;82.06;102374.38;5205860;28;20081;-68
2022/03/21 05:11:31;;;;;;;21.52;9.48;;;6.90;99.90;;;6.80;81.54;102372.31;5205834;28;20053;-68
2022/03/21 05:14:04;;;;;;;22.55;9.57;;;6.80;99.90;;;6.76;82.22;102375.47;5206142;28;20053;-68
2022/03/21 05:16:36;;;;;;;21.98;9.90;;;6.80;99.90;;;6.72;82.19;102363.06;5206401;28;20049;-68
2022/03/21 05:19:08;;;;;;;20.23;9.10;;;6.80;99.90;;;6.68;81.97;102375.69;5205343;28;20050;-68
2022/03/21 05:21:41;;;;;;;19.60;8.88;;;6.80;99.90;;;6.66;82.15;102378.16;5205988;28;20501;-68
2022/03/21 05:32:43;;;;;;;20.92;9.70;;;6.60;99.90;;;6.52;82.34;102386.59;5205502;28;20061;-67
2022/03/21 05:38:05;;;;;;;23.52;9.00;;;6.60;99.90;;;6.49;82.46;102383.75;5205034;28;20108;-68
2022/03/21 05:40:41;;;;;;;21.13;9.32;;;6.50;99.90;;;6.47;82.59;102391.41;5205252;28;20049;-70
2022/03/21 05:43:13;;;;;;;22.35;8.90;;;6.50;99.90;;;6.47;82.40;102390.50;5205761;28;20053;-68
2022/03/21 05:45:49;;;;;;;21.45;9.02;;;6.50;99.90;;;6.44;82.13;102396.34;5205574;28;20401;-68
2022/03/21 05:51:11;;;;;;;22.90;9.05;;;6.50;99.90;;;6.42;82.14;102399.59;5205400;28;20512;-68
2022/03/21 05:53:45;;;;;;;21.00;10.50;;;6.50;99.90;;;6.42;82.34;102402.19;5205486;28;20051;-68
2022/03/21 05:56:17;;;;;;;26.02;9.73;;;6.50;99.90;;;6.43;81.94;102398.81;5204931;28;20063;-68
2022/03/21 05:58:51;;;;;;;24.17;9.70;;;6.50;99.90;;;6.45;82.50;102408.50;5204217;28;20053;-68
2022/03/21 06:01:25;;;;;;;18.75;9.18;;;6.50;99.90;;;6.48;81.39;102413.03;5198248;28;20045;-68
2022/03/21 06:03:57;;;;;;;20.73;8.18;;;6.50;99.90;;;6.55;81.00;102415.31;5204491;28;20056;-68
2022/03/21 06:06:30;;;;;;;21.33;8.55;;;6.50;99.90;;;6.67;80.11;102418.84;5204896;28;20051;-68
2022/03/21 06:09:02;;;;;;;19.50;8.27;;;6.60;99.90;;;6.84;79.03;102422.69;5204425;28;20046;-68
2022/03/21 06:11:36;;;;;;;16.00;8.38;;;6.70;99.90;;;7.00;77.67;102416.97;5205217;28;20409;-68
2022/03/21 06:14:09;;;;;;;19.67;8.10;;;6.90;99.90;;;7.20;76.19;102426.25;5205004;28;20486;-69
2022/03/21 06:16:42;;;;;;;22.02;8.65;;;7.00;99.90;;;7.35;74.26;102428.25;5196593;28;20592;-68
2022/03/21 06:19:18;;;;;;;16.15;8.15;;;7.20;99.90;;;7.52;70.87;102421.72;5204287;28;20145;-69
2022/03/21 06:21:50;;;;;;;17.05;7.43;;;7.30;99.90;;;7.73;68.75;102427.56;5204544;28;20514;-68
2022/03/21 06:24:23;;;;;;;15.40;7.07;;;7.50;99.90;;;7.98;68.24;102432.81;5205027;28;20059;-67
2022/03/21 06:26:55;;;;;;;19.75;7.05;;;7.70;99.90;;;8.27;65.88;102427.06;5204586;28;20053;-68
2022/03/21 06:29:28;;;;;;;21.70;8.68;;;8.00;99.90;;;8.56;63.83;102430.84;5204446;28;20041;-69
2022/03/21 06:32:01;;;;;;;18.40;8.60;;;8.20;99.90;;;8.87;61.10;102439.94;5204777;28;20521;-69
2022/03/21 06:34:34;;;;;;;16.13;7.45;;;8.50;98.80;;;9.70;56.93;102442.78;5204420;28;20057;-68
2022/03/21 06:37:06;;;;;;;18.25;7.32;;;9.00;96.50;;;10.88;54.20;102453.66;5204496;28;20046;-69
2022/03/21 06:39:38;;;;;;;15.88;6.90;;;9.70;95.30;;;12.02;50.22;102451.56;5204408;28;20077;-69
2022/03/21 06:42:11;;;;;;;19.38;8.05;;;10.60;91.90;;;12.66;47.82;102455.03;5204705;28;20052;-69
2022/03/21 06:44:43;;;;;;;14.95;6.88;;;11.30;86.90;;;13.65;44.97;102451.34;5204351;28;20049;-68
2022/03/21 06:47:18;;;;;;;14.40;7.07;;;12.10;82.10;;;14.51;42.57;102461.53;5204363;28;20406;-69
2022/03/21 06:49:50;;;;;;;14.85;7.85;;;12.80;75.00;;;15.43;40.57;102461.13;5204571;28;20099;-68
2022/03/21 06:52:22;;;;;;;18.02;8.07;;;13.60;71.20;;;16.33;38.06;102474.38;5204415;28;20054;-68
2022/03/21 06:54:54;;;;;;;16.95;8.15;;;14.40;66.80;;;17.19;36.79;102472.22;5204652;28;20406;-69
2022/03/21 06:57:27;;;;;;;16.45;8.23;;;15.20;63.90;;;17.99;34.83;102474.00;5204341;28;20052;-67
2022/03/21 06:59:59;;;;;;;15.27;7.88;;;16.00;60.60;;;18.63;33.38;102482.94;5201250;28;20136;-69
2022/03/21 07:02:32;;;;;;;20.02;8.10;;;16.60;58.10;;;19.26;32.17;102480.28;5184017;28;20056;-69
2022/03/21 07:05:07;;;;;;;16.17;8.20;;;17.20;56.00;;;19.75;31.18;102493.00;5199974;28;20052;-69
2022/03/21 07:07:39;;;;;;;;;;;17.70;54.30;;;20.17;29.68;102486.03;5203880;28;20122;-69
2022/03/21 07:10:12;;;;;;;15.20;7.70;;;18.20;52.00;;;20.33;28.71;102489.03;5204307;28;19921;-69
2022/03/21 07:12:44;;;;;;;14.98;8.02;;;18.40;50.40;;;20.31;28.63;102496.06;5204170;28;20140;-69
2022/03/21 07:15:16;;;;;;;14.77;7.55;;;18.50;49.60;;;20.48;28.20;102492.91;5204300;28;20046;-69
2022/03/21 07:17:51;;;;;;;14.55;8.20;;;18.70;49.20;;;20.90;27.65;102491.97;5206347;28;20046;-69
2022/03/21 07:20:25;;;;;;;14.55;8.15;;;19.00;48.40;;;21.33;27.28;102491.94;5208147;28;20049;-69
2022/03/21 07:22:59;;;;;;;14.55;7.85;;;19.30;48.00;;;21.65;26.30;102496.91;5208206;28;20045;-69
2022/03/21 07:25:31;;;;;;;13.70;7.47;;;19.70;46.90;;;21.64;26.15;102497.72;5208160;28;20049;-69
2022/03/21 07:28:04;;;;;;;18.23;8.43;;;19.70;46.30;;;21.89;25.79;102497.25;5207682;28;20053;-69
2022/03/21 07:30:36;;;;;;;16.58;8.13;;;19.90;45.90;;;21.75;25.54;102493.50;5207568;28;20045;-69
2022/03/21 07:33:10;;;;;;;17.40;9.13;;;19.90;45.00;;;21.86;25.31;102493.66;5207962;28;20045;-69
2022/03/21 07:35:42;;;;;;;15.55;8.68;;;20.10;44.70;;;21.32;25.40;102503.41;5208161;28;20049;-69
2022/03/21 07:38:14;;;;;;;15.90;8.35;;;19.80;44.50;;;21.68;25.40;102504.88;5207656;28;20053;-69
2022/03/21 07:40:47;;;;;;;14.93;7.85;;;20.00;44.70;;;21.88;25.08;102506.09;5207589;28;20049;-69
2022/03/21 07:43:19;;;;;;;15.65;8.23;;;20.10;44.40;;;22.19;24.78;102511.88;5207435;28;20056;-69
2022/03/21 07:48:42;;;;;;;14.38;8.32;;;20.60;43.80;;;23.14;23.28;102518.34;5207451;28;20053;-69
2022/03/21 07:51:15;;;;;;;15.50;8.07;;;21.00;42.60;;;22.77;23.55;102517.94;5206798;28;20055;-69
2022/03/21 07:53:47;;;;;;;16.92;8.40;;;20.90;42.50;;;22.99;23.84;102520.00;5207375;28;20117;-69
2022/03/21 07:56:19;;;;;;;15.45;8.82;;;21.00;43.00;;;22.61;23.00;102523.94;5207560;28;20057;-69
2022/03/21 07:58:52;;;;;;;13.45;8.05;;;20.90;41.70;;;22.66;23.54;102520.47;5206786;28;20115;-69
2022/03/21 08:01:24;;;;;;;15.77;8.30;;;20.80;42.50;;;22.47;23.67;102523.75;5207130;28;20054;-69
2022/03/21 08:04:00;;;;;;;13.43;8.07;;;20.80;42.20;;;22.69;23.67;102519.59;5207126;28;20057;-70
2022/03/21 08:06:32;;;;;;;14.95;8.18;;;20.90;42.50;;;22.79;23.31;102526.81;5207457;28;20064;-70
2022/03/21 08:09:04;;;;;;;15.57;8.18;;;21.00;42.00;;;22.63;23.51;102524.88;5206193;28;20091;-70
2022/03/21 08:11:36;;;;;;;13.80;7.88;;;20.90;41.90;;;22.85;23.56;102524.25;5207291;28;20052;-70
2022/03/21 08:14:08;;;;;;;16.98;8.38;;;21.00;42.30;;;23.40;23.25;102521.28;5206483;28;20058;-75
2022/03/21 08:16:41;;;;;;;15.55;8.30;;;21.40;42.30;;;23.59;22.66;102523.22;5206255;28;20060;-74
2022/03/21 08:19:16;;;;;;;15.57;8.25;;;21.60;41.30;;;23.39;22.67;102514.16;5205266;28;20045;-74
2022/03/21 08:21:48;;;;;;;14.65;7.95;;;21.50;41.10;;;22.69;22.81;102519.59;5205842;28;20278;-74
2022/03/21 08:24:21;;;;;;;17.15;9.45;;;21.10;41.10;;;22.36;23.67;102525.38;5205556;28;20163;-74
2022/03/21 08:26:54;;;;;;;15.10;8.50;;;20.80;41.80;;;22.27;23.73;102531.47;5205946;28;20049;-74
2022/03/21 08:29:26;;;;;;;14.27;8.13;;;20.60;42.10;;;22.66;25.16;102530.22;5204805;28;20160;-64
2022/03/21 08:31:58;;;;;;;15.48;8.05;;;20.80;44.20;;;23.19;24.90;102532.59;5201345;28;20057;-65
2022/03/21 08:34:32;;;;;;;16.65;7.85;;;21.20;44.70;;;23.71;24.28;102530.44;5202861;28;20430;-63
2022/03/21 08:37:04;;;;;;;16.27;8.60;;;21.60;44.10;;;24.05;23.16;102527.13;5187602;28;20041;-74
2022/03/21 08:39:36;;;;;;;17.08;8.35;;;21.90;42.60;;;23.76;22.52;102536.72;5185243;28;20058;-63
2022/03/21 08:42:09;;;;;;;13.32;7.13;;;21.80;41.50;;;23.26;24.68;102529.13;5196584;28;20054;-63
2022/03/21 08:44:41;;;;;;;17.83;7.93;;;21.50;43.50;;;23.37;24.18;102531.91;5194745;28;20045;-62
2022/03/21 08:47:13;;;;;;;16.90;9.02;;;21.60;43.10;;;23.99;22.44;102532.41;5190657;28;20509;-64
2022/03/21 08:49:46;;;;;;;15.35;7.97;;;21.80;41.50;;;23.98;22.49;102533.31;5197348;28;20045;-62
2022/03/21 08:52:19;;;;;;;16.52;8.80;;;21.90;41.10;;;23.69;23.97;102534.88;5186384;28;20056;-63
2022/03/21 08:54:51;;;;;;;15.98;8.07;;;21.90;42.80;;;23.63;23.57;102527.72;5186259;28;20045;-64
2022/03/21 08:57:23;;;;;;;14.98;7.85;;;21.80;42.10;;;23.75;22.74;102534.94;5185606;28;20111;-62
2022/03/21 08:59:55;;;;;;;17.42;8.73;;;21.90;41.50;;;23.46;23.22;102531.97;5185663;28;20042;-63
2022/03/21 09:02:28;;;;;;;13.65;7.85;;;21.70;41.50;;;23.27;23.81;102525.59;5185636;28;20121;-63
2022/03/21 09:05:03;;;;;;;14.68;8.20;;;21.70;42.30;;;23.28;24.18;102532.72;5185417;28;20064;-63
2022/03/21 09:07:35;;;;;;;14.20;7.90;;;21.80;42.40;;;22.89;24.05;102528.75;5201168;28;20053;-63
2022/03/21 09:10:11;;;;;;;16.48;8.90;;;21.60;41.60;;;22.50;24.93;102522.94;5206233;28;20049;-62
2022/03/21 09:12:43;;;;;;;18.70;8.95;;;21.50;42.90;;;22.08;24.92;102529.38;5205863;28;20132;-64
2022/03/21 09:15:16;;;;;;;15.88;8.18;;;21.20;43.20;;;21.66;25.35;102522.56;5206162;28;20049;-63
2022/03/21 09:17:48;;;;;;;16.00;8.10;;;21.00;42.60;;;21.30;26.00;102521.03;5205801;28;20477;-61
2022/03/21 09:20:21;;;;;;;17.92;8.88;;;20.70;43.20;;;20.74;26.50;102518.19;5206099;28;20493;-61
2022/03/21 09:22:53;;;;;;;14.98;8.30;;;20.30;43.40;;;20.62;27.11;102517.94;5205992;28;20406;-64
2022/03/21 09:25:25;;;;;;;18.48;8.88;;;20.10;44.20;;;20.53;26.99;102520.38;5196747;28;20064;-63
2022/03/21 09:27:57;;;;;;;16.25;8.63;;;20.00;44.20;;;20.13;27.50;102519.47;5204080;28;20141;-64
2022/03/21 09:30:29;;;;;;;16.65;9.20;;;19.70;44.40;;;20.00;27.88;102522.69;5191686;28;20076;-61
2022/03/21 09:33:01;;;;;;;16.35;8.60;;;19.50;44.90;;;19.86;28.66;102524.13;5187014;28;20129;-65
2022/03/21 09:35:35;;;;;;;17.70;8.65;;;19.30;45.80;;;19.76;28.49;102512.44;5187543;28;20050;-64
2022/03/21 09:38:07;;;;;;;19.08;9.02;;;19.30;45.70;;;19.54;28.65;102518.91;5186256;28;20050;-74
2022/03/21 09:40:39;;;;;;;16.55;8.23;;;19.10;45.60;;;19.22;28.89;102518.97;5191171;28;20049;-73
2022/03/21 09:43:13;;;;;;;20.15;8.05;;;18.80;45.50;;;19.07;29.07;102509.75;5194263;28;20045;-73
2022/03/21 09:45:45;;;;;;;15.45;8.35;;;18.70;45.90;;;18.93;29.60;102506.72;5194830;28;20077;-73
2022/03/21 09:48:20;;;;;;;16.50;8.15;;;18.60;46.40;;;18.83;29.56;102508.19;5184027;28;20127;-72
2022/03/21 09:50:56;;;;;;;18.25;8.57;;;18.50;46.40;;;18.87;29.99;102506.56;5184713;28;20046;-73
2022/03/21 09:53:28;;;;;;;15.88;8.23;;;18.40;47.20;;;19.00;30.50;102508.69;5184856;28;20073;-74
2022/03/21 09:56:01;;;;;;;16.17;8.13;;;18.40;47.80;;;19.08;30.54;102504.50;5185304;28;20057;-74
2022/03/21 09:58:33;;;;;;;17.40;8.60;;;18.50;48.00;;;19.12;30.74;102508.13;5189003;28;20132;-72
2022/03/21 10:01:05;;;;;;;17.08;8.55;;;18.50;48.40;;;19.29;31.69;102509.44;5184260;28;20133;-73
2022/03/21 10:03:38;;;;;;;16.35;8.30;;;18.60;49.40;;;19.32;30.99;102492.78;5187587;28;20049;-75
2022/03/21 10:06:32;;;;;;;15.15;7.85;;;18.70;48.50;;;19.35;30.63;102500.78;5183300;28;20054;-73
2022/03/21 10:09:08;;;;;;;15.85;8.57;;;18.70;48.20;;;19.38;30.79;102500.88;5184199;28;20567;-74
2022/03/21 10:11:49;;;;;;;18.20;8.85;;;18.70;48.40;;;19.37;31.14;102504.38;5185252;28;20054;-74
2022/03/21 10:14:27;;;;;;;16.02;8.32;;;18.70;49.50;;;19.53;30.62;102501.25;5185070;28;20050;-74
2022/03/21 10:17:02;;;;;;;18.83;8.57;;;18.80;48.50;;;19.49;30.74;102499.38;5184903;28;20050;-73
2022/03/21 10:19:47;;;;;;;16.45;8.20;;;18.80;48.50;;;19.29;30.65;102500.63;5184763;28;22063;-73
2022/03/21 10:22:23;;;;;;;17.38;8.45;;;18.80;48.10;;;19.05;30.90;102504.44;5184965;28;20056;-74
2022/03/21 10:25:05;;;;;;;17.50;8.48;;;18.60;48.00;;;18.96;31.45;102501.50;5185364;28;20058;-73
2022/03/21 10:27:39;;;;;;;15.48;7.93;;;18.50;48.80;;;18.93;31.84;102498.81;5184784;28;20402;-73
2022/03/21 10:30:15;;;;;;;17.40;8.40;;;18.40;49.20;;;18.70;31.97;102490.22;5184978;28;20045;-73
2022/03/21 10:32:53;;;;;;;16.08;8.43;;;18.30;49.20;;;18.72;32.27;102492.94;5184871;28;20053;-73
2022/03/21 10:35:30;;;;;;;15.95;8.07;;;18.20;49.60;;;18.78;32.37;102490.44;5185028;28;20054;-73
2022/03/21 10:38:05;;;;;;;15.68;8.07;;;18.20;50.50;;;18.88;32.40;102492.50;5184699;28;20381;-73
2022/03/21 10:40:46;;;;;;;19.23;8.02;;;18.30;50.10;;;18.74;32.52;102483.28;5184522;28;20052;-73
2022/03/21 10:43:19;;;;;;;16.83;8.00;;;18.20;50.20;;;18.81;33.23;102490.53;5184879;28;20050;-73
2022/03/21 10:45:54;;;;;;;17.83;8.00;;;18.30;51.00;;;18.98;33.17;102487.50;5185075;28;20145;-73
2022/03/21 10:48:29;;;;;;;14.73;8.27;;;18.30;51.00;;;19.03;33.40;102486.72;5184197;28;20064;-73
2022/03/21 10:51:04;;;;;;;14.52;7.75;;;18.40;51.20;;;19.19;34.53;102488.94;5186651;28;20141;-73
2022/03/21 10:53:41;;;;;;;16.67;8.00;;;18.50;52.60;;;19.36;33.64;102478.75;5199869;28;20092;-73
2022/03/21 10:56:13;;;;;;;14.43;6.85;;;18.70;51.80;;;19.43;33.53;102484.28;5194207;28;20491;-64
2022/03/21 10:58:48;;;;;;;16.10;6.45;;;18.70;51.50;;;19.39;34.70;102476.22;5187648;28;20425;-66
2022/03/21 11:01:25;;;;;;;;;;;18.80;52.90;;;19.59;34.23;102475.00;5194649;28;20041;-68